sensor_id;sensor_type;location;lat;lon;timestamp;pressure;altitude;pressure_sealevel;temperature;humidity
55032;BME280;40928;51.076;7.950;2024-03-22T00:00:16;97606.06;;;7.98;100.00
55032;BME280;40928;51.076;7.950;2024-03-22T00:02:42;97598.72;;;7.93;100.00
55032;BME280;40928;51.076;7.950;2024-03-22T00:05:07;97591.78;;;7.92;100.00
55032;BME280;40928;51.076;7.950;2024-03-22T00:07:33;97591.16;;;7.90;100.00
55032;BME280;40928;51.076;7.950;2024-03-22T00:09:58;97587.47;;;7.91;100.00
55032;BME280;40928;51.076;7.950;2024-03-22T00:12:25;97591.34;;;7.88;100.00
55032;BME280;40928;51.076;7.950;2024-03-22T00:14:51;97594.84;;;7.89;100.00
55032;BME280;40928;51.076;7.950;2024-03-22T00:17:20;97595.66;;;7.89;100.00
55032;BME280;40928;51.076;7.950;2024-03-22T00:19:46;97597.69;;;7.94;100.00
55032;BME280;40928;51.076;7.950;2024-03-22T00:22:12;97594.00;;;7.95;100.00
55032;BME280;40928;51.076;7.950;2024-03-22T00:24:38;97587.25;;;7.99;100.00
55032;BME280;40928;51.076;7.950;2024-03-22T00:27:04;97583.56;;;8.00;100.00
55032;BME280;40928;51.076;7.950;2024-03-22T00:29:30;97589.28;;;7.97;100.00
55032;BME280;40928;51.076;7.950;2024-03-22T00:31:55;97595.03;;;8.01;100.00
55032;BME280;40928;51.076;7.950;2024-03-22T00:34:21;97578.06;;;8.02;100.00
55032;BME280;40928;51.076;7.950;2024-03-22T00:36:48;97585.41;;;8.06;100.00
55032;BME280;40928;51.076;7.950;2024-03-22T00:39:14;97591.09;;;8.10;100.00
55032;BME280;40928;51.076;7.950;2024-03-22T00:41:40;97580.50;;;8.03;100.00
55032;BME280;40928;51.076;7.950;2024-03-22T00:44:06;97581.09;;;8.05;100.00
55032;BME280;40928;51.076;7.950;2024-03-22T00:46:31;97580.06;;;8.06;100.00
55032;BME280;40928;51.076;7.950;2024-03-22T00:48:57;97579.47;;;8.04;100.00
55032;BME280;40928;51.076;7.950;2024-03-22T00:51:25;97580.91;;;8.00;100.00
55032;BME280;40928;51.076;7.950;2024-03-22T00:53:51;97576.44;;;7.94;100.00
55032;BME280;40928;51.076;7.950;2024-03-22T00:56:17;97578.88;;;7.89;100.00
55032;BME280;40928;51.076;7.950;2024-03-22T00:58:42;97568.03;;;7.90;100.00
55032;BME280;40928;51.076;7.950;2024-03-22T01:01:08;97567.41;;;7.95;100.00
55032;BME280;40928;51.076;7.950;2024-03-22T01:03:34;97562.91;;;7.96;100.00
55032;BME280;40928;51.076;7.950;2024-03-22T01:05:59;97572.13;;;8.00;100.00
55032;BME280;40928;51.076;7.950;2024-03-22T01:08:25;97558.78;;;8.06;100.00
55032;BME280;40928;51.076;7.950;2024-03-22T01:10:50;97561.25;;;8.01;100.00
55032;BME280;40928;51.076;7.950;2024-03-22T01:13:16;97555.13;;;8.01;100.00
55032;BME280;40928;51.076;7.950;2024-03-22T01:15:42;97554.69;;;8.04;100.00
55032;BME280;40928;51.076;7.950;2024-03-22T01:18:08;97541.00;;;8.00;100.00
55032;BME280;40928;51.076;7.950;2024-03-22T01:20:35;97550.22;;;7.98;100.00
55032;BME280;40928;51.076;7.950;2024-03-22T01:23:01;97546.72;;;7.97;100.00
55032;BME280;40928;51.076;7.950;2024-03-22T01:25:27;97545.09;;;7.96;100.00
55032;BME280;40928;51.076;7.950;2024-03-22T01:27:54;97544.09;;;7.90;100.00
55032;BME280;40928;51.076;7.950;2024-03-22T01:30:19;97538.59;;;7.92;100.00
55032;BME280;40928;51.076;7.950;2024-03-22T01:32:45;97534.28;;;7.91;100.00
55032;BME280;40928;51.076;7.950;2024-03-22T01:35:10;97527.75;;;7.87;100.00
55032;BME280;40928;51.076;7.950;2024-03-22T01:37:36;97536.94;;;7.91;100.00
55032;BME280;40928;51.076;7.950;2024-03-22T01:40:03;97526.09;;;7.92;100.00
55032;BME280;40928;51.076;7.950;2024-03-22T01:42:29;97519.13;;;7.91;100.00
55032;BME280;40928;51.076;7.950;2024-03-22T01:44:55;97524.47;;;7.91;100.00
55032;BME280;40928;51.076;7.950;2024-03-22T01:47:20;97519.97;;;7.92;100.00
55032;BME280;40928;51.076;7.950;2024-03-22T01:49:47;97521.81;;;7.91;100.00
55032;BME280;40928;51.076;7.950;2024-03-22T01:52:14;97521.16;;;7.96;100.00
55032;BME280;40928;51.076;7.950;2024-03-22T01:54:40;97522.38;;;8.00;100.00
55032;BME280;40928;51.076;7.950;2024-03-22T01:57:05;97520.56;;;8.01;100.00
55032;BME280;40928;51.076;7.950;2024-03-22T01:59:32;97516.47;;;7.91;100.00
55032;BME280;40928;51.076;7.950;2024-03-22T02:01:59;97517.31;;;7.92;100.00
55032;BME280;40928;51.076;7.950;2024-03-22T02:04:25;97516.88;;;7.95;100.00
55032;BME280;40928;51.076;7.950;2024-03-22T02:06:50;97507.06;;;7.96;100.00
55032;BME280;40928;51.076;7.950;2024-03-22T02:09:16;97506.63;;;8.05;100.00
55032;BME280;40928;51.076;7.950;2024-03-22T02:11:42;97495.81;;;7.93;100.00
55032;BME280;40928;51.076;7.950;2024-03-22T02:14:08;97500.13;;;7.95;100.00
55032;BME280;40928;51.076;7.950;2024-03-22T02:16:35;97476.56;;;7.98;100.00
55032;BME280;40928;51.076;7.950;2024-03-22T02:19:00;97470.03;;;8.01;100.00
55032;BME280;40928;51.076;7.950;2024-03-22T02:21:26;97466.13;;;8.03;100.00
55032;BME280;40928;51.076;7.950;2024-03-22T02:23:52;97454.88;;;8.01;100.00
55032;BME280;40928;51.076;7.950;2024-03-22T02:26:17;97461.44;;;7.99;100.00
55032;BME280;40928;51.076;7.950;2024-03-22T02:28:43;97453.50;;;7.92;100.00
55032;BME280;40928;51.076;7.950;2024-03-22T02:31:08;97459.00;;;7.90;100.00
55032;BME280;40928;51.076;7.950;2024-03-22T02:33:34;97446.34;;;7.86;100.00
55032;BME280;40928;51.076;7.950;2024-03-22T02:36:00;97439.78;;;7.88;100.00
55032;BME280;40928;51.076;7.950;2024-03-22T02:38:25;97445.50;;;7.92;100.00
55032;BME280;40928;51.076;7.950;2024-03-22T02:40:52;97445.69;;;7.97;100.00
55032;BME280;40928;51.076;7.950;2024-03-22T02:43:18;97439.34;;;7.98;100.00
55032;BME280;40928;51.076;7.950;2024-03-22T02:45:45;97437.88;;;8.02;100.00
55032;BME280;40928;51.076;7.950;2024-03-22T02:48:11;97434.81;;;8.05;100.00
55032;BME280;40928;51.076;7.950;2024-03-22T02:50:37;97431.50;;;8.10;100.00
55032;BME280;40928;51.076;7.950;2024-03-22T02:53:03;97436.03;;;8.10;100.00
55032;BME280;40928;51.076;7.950;2024-03-22T02:55:29;97433.16;;;8.11;100.00
55032;BME280;40928;51.076;7.950;2024-03-22T02:57:58;97425.97;;;8.12;100.00
55032;BME280;40928;51.076;7.950;2024-03-22T03:00:24;97429.03;;;8.15;100.00
55032;BME280;40928;51.076;7.950;2024-03-22T03:02:50;97422.88;;;8.15;100.00
55032;BME280;40928;51.076;7.950;2024-03-22T03:05:16;97418.81;;;8.12;100.00
55032;BME280;40928;51.076;7.950;2024-03-22T03:07:41;97401.44;;;8.10;100.00
55032;BME280;40928;51.076;7.950;2024-03-22T03:10:07;97405.94;;;8.09;100.00
55032;BME280;40928;51.076;7.950;2024-03-22T03:12:33;97400.84;;;8.07;100.00
55032;BME280;40928;51.076;7.950;2024-03-22T03:14:59;97402.47;;;8.08;100.00
55032;BME280;40928;51.076;7.950;2024-03-22T03:17:24;97400.41;;;8.11;100.00
55032;BME280;40928;51.076;7.950;2024-03-22T03:19:50;97393.88;;;8.06;100.00
55032;BME280;40928;51.076;7.950;2024-03-22T03:22:16;97397.63;;;7.99;100.00
55032;BME280;40928;51.076;7.950;2024-03-22T03:24:41;97402.72;;;8.00;100.00
55032;BME280;40928;51.076;7.950;2024-03-22T03:27:07;97393.47;;;8.03;100.00
55032;BME280;40928;51.076;7.950;2024-03-22T03:29:33;97392.25;;;8.05;100.00
55032;BME280;40928;51.076;7.950;2024-03-22T03:31:59;97375.31;;;8.00;100.00
55032;BME280;40928;51.076;7.950;2024-03-22T03:34:24;97390.81;;;8.10;100.00
55032;BME280;40928;51.076;7.950;2024-03-22T03:36:50;97393.47;;;8.10;100.00
55032;BME280;40928;51.076;7.950;2024-03-22T03:39:15;97388.16;;;8.10;100.00
55032;BME280;40928;51.076;7.950;2024-03-22T03:41:41;97391.38;;;8.12;100.00
55032;BME280;40928;51.076;7.950;2024-03-22T03:44:07;97387.28;;;8.16;100.00
55032;BME280;40928;51.076;7.950;2024-03-22T03:46:32;97381.56;;;8.12;100.00
55032;BME280;40928;51.076;7.950;2024-03-22T03:48:58;97379.13;;;8.11;100.00
55032;BME280;40928;51.076;7.950;2024-03-22T03:51:24;97381.56;;;8.12;100.00
55032;BME280;40928;51.076;7.950;2024-03-22T03:53:49;97377.25;;;8.18;100.00
55032;BME280;40928;51.076;7.950;2024-03-22T03:56:15;97373.56;;;8.19;100.00
55032;BME280;40928;51.076;7.950;2024-03-22T03:58:41;97369.91;;;8.13;100.00
55032;BME280;40928;51.076;7.950;2024-03-22T04:01:07;97371.53;;;8.14;100.00
55032;BME280;40928;51.076;7.950;2024-03-22T04:03:33;97371.31;;;8.16;100.00
55032;BME280;40928;51.076;7.950;2024-03-22T04:05:59;97374.59;;;8.18;100.00
55032;BME280;40928;51.076;7.950;2024-03-22T04:08:26;97377.84;;;8.20;100.00
55032;BME280;40928;51.076;7.950;2024-03-22T04:10:55;97384.81;;;8.21;100.00
55032;BME280;40928;51.076;7.950;2024-03-22T04:13:27;97381.13;;;8.22;100.00
55032;BME280;40928;51.076;7.950;2024-03-22T04:15:53;97383.97;;;8.20;100.00
55032;BME280;40928;51.076;7.950;2024-03-22T04:18:19;97383.16;;;8.20;100.00
55032;BME280;40928;51.076;7.950;2024-03-22T04:20:55;97370.47;;;8.22;100.00
55032;BME280;40928;51.076;7.950;2024-03-22T04:23:21;97361.47;;;8.23;100.00
55032;BME280;40928;51.076;7.950;2024-03-22T04:26:00;97363.28;;;8.22;100.00
55032;BME280;40928;51.076;7.950;2024-03-22T04:28:29;97360.44;;;8.24;100.00
55032;BME280;40928;51.076;7.950;2024-03-22T04:31:02;97355.69;;;8.26;100.00
55032;BME280;40928;51.076;7.950;2024-03-22T04:33:29;97355.91;;;8.25;100.00
55032;BME280;40928;51.076;7.950;2024-03-22T04:35:55;97352.69;;;8.16;100.00
55032;BME280;40928;51.076;7.950;2024-03-22T04:38:23;97356.19;;;8.16;100.00
55032;BME280;40928;51.076;7.950;2024-03-22T04:40:49;97349.63;;;8.19;100.00
55032;BME280;40928;51.076;7.950;2024-03-22T04:43:15;97349.00;;;8.17;100.00
55032;BME280;40928;51.076;7.950;2024-03-22T04:46:01;97340.00;;;8.18;100.00
55032;BME280;40928;51.076;7.950;2024-03-22T04:48:26;97327.13;;;8.15;100.00
55032;BME280;40928;51.076;7.950;2024-03-22T04:50:52;97335.72;;;8.17;100.00
55032;BME280;40928;51.076;7.950;2024-03-22T04:53:19;97328.75;;;8.16;100.00
55032;BME280;40928;51.076;7.950;2024-03-22T04:55:49;97327.53;;;8.12;100.00
55032;BME280;40928;51.076;7.950;2024-03-22T04:58:20;97326.56;;;8.06;100.00
55032;BME280;40928;51.076;7.950;2024-03-22T05:00:47;97323.72;;;8.07;100.00
55032;BME280;40928;51.076;7.950;2024-03-22T05:03:13;97314.09;;;8.06;100.00
55032;BME280;40928;51.076;7.950;2024-03-22T05:05:40;97305.28;;;8.06;100.00
55032;BME280;40928;51.076;7.950;2024-03-22T05:08:06;97303.22;;;8.08;100.00
55032;BME280;40928;51.076;7.950;2024-03-22T05:10:33;97305.69;;;8.10;100.00
55032;BME280;40928;51.076;7.950;2024-03-22T05:12:59;97311.16;;;8.15;100.00
55032;BME280;40928;51.076;7.950;2024-03-22T05:15:25;97299.72;;;8.14;100.00
55032;BME280;40928;51.076;7.950;2024-03-22T05:17:52;97298.03;;;8.20;100.00
55032;BME280;40928;51.076;7.950;2024-03-22T05:20:18;97295.22;;;8.15;100.00
55032;BME280;40928;51.076;7.950;2024-03-22T05:22:44;97283.53;;;8.16;100.00
55032;BME280;40928;51.076;7.950;2024-03-22T05:25:11;97282.88;;;8.20;100.00
55032;BME280;40928;51.076;7.950;2024-03-22T05:27:38;97278.38;;;8.21;100.00
55032;BME280;40928;51.076;7.950;2024-03-22T05:30:04;97287.78;;;8.23;100.00
55032;BME280;40928;51.076;7.950;2024-03-22T05:32:30;97277.97;;;8.24;100.00
55032;BME280;40928;51.076;7.950;2024-03-22T05:34:55;97272.63;;;8.24;100.00
55032;BME280;40928;51.076;7.950;2024-03-22T05:37:21;97280.22;;;8.20;100.00
55032;BME280;40928;51.076;7.950;2024-03-22T05:39:48;97275.06;;;8.26;100.00
55032;BME280;40928;51.076;7.950;2024-03-22T05:42:14;97264.72;;;8.17;100.00
55032;BME280;40928;51.076;7.950;2024-03-22T05:44:39;97269.97;;;8.24;100.00
55032;BME280;40928;51.076;7.950;2024-03-22T05:47:05;97275.56;;;8.16;100.00
55032;BME280;40928;51.076;7.950;2024-03-22T05:49:31;97269.44;;;8.15;100.00
55032;BME280;40928;51.076;7.950;2024-03-22T05:51:56;97271.97;;;8.03;100.00
55032;BME280;40928;51.076;7.950;2024-03-22T05:54:22;97249.06;;;8.02;100.00
55032;BME280;40928;51.076;7.950;2024-03-22T05:56:48;97257.69;;;7.98;100.00
55032;BME280;40928;51.076;7.950;2024-03-22T05:59:13;97261.38;;;7.97;100.00
55032;BME280;40928;51.076;7.950;2024-03-22T06:01:39;97268.72;;;8.01;100.00
55032;BME280;40928;51.076;7.950;2024-03-22T06:04:05;97264.84;;;7.97;100.00
55032;BME280;40928;51.076;7.950;2024-03-22T06:06:35;97261.16;;;7.98;100.00
55032;BME280;40928;51.076;7.950;2024-03-22T06:09:02;97271.97;;;8.03;100.00
55032;BME280;40928;51.076;7.950;2024-03-22T06:11:35;97263.72;;;8.12;100.00
55032;BME280;40928;51.076;7.950;2024-03-22T06:14:02;97267.56;;;8.16;100.00
55032;BME280;40928;51.076;7.950;2024-03-22T06:16:27;97265.69;;;8.23;100.00
55032;BME280;40928;51.076;7.950;2024-03-22T06:18:53;97265.22;;;8.26;100.00
55032;BME280;40928;51.076;7.950;2024-03-22T06:21:20;97265.72;;;8.42;100.00
55032;BME280;40928;51.076;7.950;2024-03-22T06:23:51;97256.13;;;8.41;100.00
55032;BME280;40928;51.076;7.950;2024-03-22T06:26:17;97269.63;;;8.39;100.00
55032;BME280;40928;51.076;7.950;2024-03-22T06:28:43;97267.34;;;8.43;100.00
55032;BME280;40928;51.076;7.950;2024-03-22T06:31:12;97265.56;;;8.36;100.00
55032;BME280;40928;51.076;7.950;2024-03-22T06:33:38;97265.28;;;8.45;100.00
55032;BME280;40928;51.076;7.950;2024-03-22T06:36:05;97262.59;;;8.51;100.00
55032;BME280;40928;51.076;7.950;2024-03-22T06:38:31;97274.06;;;8.52;100.00
55032;BME280;40928;51.076;7.950;2024-03-22T06:40:56;97262.97;;;8.55;100.00
55032;BME280;40928;51.076;7.950;2024-03-22T06:43:24;97265.78;;;8.60;100.00
55032;BME280;40928;51.076;7.950;2024-03-22T06:45:51;97253.91;;;8.63;100.00
55032;BME280;40928;51.076;7.950;2024-03-22T06:48:17;97264.91;;;8.66;100.00
55032;BME280;40928;51.076;7.950;2024-03-22T06:50:43;97267.72;;;8.72;100.00
55032;BME280;40928;51.076;7.950;2024-03-22T06:53:09;97270.97;;;8.74;100.00
55032;BME280;40928;51.076;7.950;2024-03-22T06:55:36;97272.38;;;8.76;100.00
55032;BME280;40928;51.076;7.950;2024-03-22T06:58:01;97264.84;;;8.73;100.00
55032;BME280;40928;51.076;7.950;2024-03-22T07:00:28;97275.66;;;8.78;100.00
55032;BME280;40928;51.076;7.950;2024-03-22T07:02:53;97274.38;;;8.81;100.00
55032;BME280;40928;51.076;7.950;2024-03-22T07:05:21;97270.84;;;8.87;100.00
55032;BME280;40928;51.076;7.950;2024-03-22T07:07:47;97265.72;;;8.86;100.00
55032;BME280;40928;51.076;7.950;2024-03-22T07:10:13;97257.16;;;8.83;100.00
55032;BME280;40928;51.076;7.950;2024-03-22T07:12:38;97262.03;;;8.87;100.00
55032;BME280;40928;51.076;7.950;2024-03-22T07:15:05;97259.38;;;9.05;100.00
55032;BME280;40928;51.076;7.950;2024-03-22T07:17:31;97248.56;;;9.00;100.00
55032;BME280;40928;51.076;7.950;2024-03-22T07:19:57;97259.28;;;9.12;100.00
55032;BME280;40928;51.076;7.950;2024-03-22T07:22:22;97243.56;;;9.22;100.00
55032;BME280;40928;51.076;7.950;2024-03-22T07:24:48;97240.81;;;9.29;100.00
55032;BME280;40928;51.076;7.950;2024-03-22T07:27:15;97233.88;;;9.28;100.00
55032;BME280;40928;51.076;7.950;2024-03-22T07:29:41;97235.81;;;9.51;100.00
55032;BME280;40928;51.076;7.950;2024-03-22T07:32:07;97237.09;;;9.49;100.00
55032;BME280;40928;51.076;7.950;2024-03-22T07:34:32;97232.25;;;9.57;100.00
55032;BME280;40928;51.076;7.950;2024-03-22T07:36:58;97236.41;;;9.53;100.00
55032;BME280;40928;51.076;7.950;2024-03-22T07:39:24;97242.50;;;9.42;100.00
55032;BME280;40928;51.076;7.950;2024-03-22T07:41:50;97237.03;;;9.37;100.00
55032;BME280;40928;51.076;7.950;2024-03-22T07:44:17;97233.13;;;9.39;100.00
55032;BME280;40928;51.076;7.950;2024-03-22T07:46:46;97242.19;;;9.50;100.00
55032;BME280;40928;51.076;7.950;2024-03-22T07:49:12;97236.09;;;9.62;100.00
55032;BME280;40928;51.076;7.950;2024-03-22T07:51:38;97228.69;;;9.75;100.00
55032;BME280;40928;51.076;7.950;2024-03-22T07:54:04;97225.47;;;9.85;100.00
55032;BME280;40928;51.076;7.950;2024-03-22T07:56:30;97219.13;;;9.98;100.00
55032;BME280;40928;51.076;7.950;2024-03-22T07:58:55;97229.94;;;10.15;100.00
55032;BME280;40928;51.076;7.950;2024-03-22T08:01:22;97213.34;;;10.25;100.00
55032;BME280;40928;51.076;7.950;2024-03-22T08:03:49;97217.69;;;10.38;100.00
55032;BME280;40928;51.076;7.950;2024-03-22T08:06:15;97219.19;;;10.46;100.00
55032;BME280;40928;51.076;7.950;2024-03-22T08:08:41;97213.25;;;10.56;100.00
55032;BME280;40928;51.076;7.950;2024-03-22T08:11:06;97213.59;;;10.71;100.00
55032;BME280;40928;51.076;7.950;2024-03-22T08:13:32;97221.22;;;10.79;100.00
55032;BME280;40928;51.076;7.950;2024-03-22T08:15:58;97213.66;;;10.76;100.00
55032;BME280;40928;51.076;7.950;2024-03-22T08:18:24;97213.78;;;10.81;100.00
55032;BME280;40928;51.076;7.950;2024-03-22T08:20:49;97215.72;;;10.98;100.00
55032;BME280;40928;51.076;7.950;2024-03-22T08:23:15;97203.53;;;11.02;100.00
55032;BME280;40928;51.076;7.950;2024-03-22T08:25:43;97202.97;;;11.29;100.00
55032;BME280;40928;51.076;7.950;2024-03-22T08:28:09;97203.50;;;11.43;99.39
55032;BME280;40928;51.076;7.950;2024-03-22T08:30:37;97199.78;;;11.44;99.12
55032;BME280;40928;51.076;7.950;2024-03-22T08:33:03;97197.94;;;11.33;99.48
55032;BME280;40928;51.076;7.950;2024-03-22T08:35:29;97197.09;;;11.44;98.76
55032;BME280;40928;51.076;7.950;2024-03-22T08:37:56;97196.53;;;11.42;98.73
55032;BME280;40928;51.076;7.950;2024-03-22T08:40:22;97191.03;;;11.49;98.59
55032;BME280;40928;51.076;7.950;2024-03-22T08:42:48;97194.66;;;11.42;98.63
55032;BME280;40928;51.076;7.950;2024-03-22T08:45:14;97191.66;;;11.56;98.91
55032;BME280;40928;51.076;7.950;2024-03-22T08:47:43;97190.41;;;11.58;97.86
55032;BME280;40928;51.076;7.950;2024-03-22T08:50:11;97186.00;;;11.69;97.27
55032;BME280;40928;51.076;7.950;2024-03-22T08:52:37;97173.44;;;11.87;97.47
55032;BME280;40928;51.076;7.950;2024-03-22T08:55:04;97178.59;;;12.06;94.97
55032;BME280;40928;51.076;7.950;2024-03-22T08:57:31;97167.72;;;12.12;93.55
55032;BME280;40928;51.076;7.950;2024-03-22T08:59:58;97167.25;;;11.98;94.21
55032;BME280;40928;51.076;7.950;2024-03-22T09:02:23;97162.44;;;11.83;94.69
55032;BME280;40928;51.076;7.950;2024-03-22T09:04:49;97162.34;;;11.95;94.42
55032;BME280;40928;51.076;7.950;2024-03-22T09:07:15;97170.72;;;11.99;93.79
55032;BME280;40928;51.076;7.950;2024-03-22T09:09:40;97169.81;;;11.93;93.47
55032;BME280;40928;51.076;7.950;2024-03-22T09:12:06;97160.59;;;12.01;92.55
55032;BME280;40928;51.076;7.950;2024-03-22T09:14:33;97155.38;;;12.11;92.10
55032;BME280;40928;51.076;7.950;2024-03-22T09:16:58;97156.09;;;12.24;90.72
55032;BME280;40928;51.076;7.950;2024-03-22T09:19:24;97154.88;;;12.31;91.20
55032;BME280;40928;51.076;7.950;2024-03-22T09:21:50;97139.53;;;12.44;89.69
55032;BME280;40928;51.076;7.950;2024-03-22T09:24:15;97154.59;;;12.50;89.74
55032;BME280;40928;51.076;7.950;2024-03-22T09:26:41;97153.34;;;12.58;89.02
55032;BME280;40928;51.076;7.950;2024-03-22T09:29:07;97157.34;;;12.38;88.61
55032;BME280;40928;51.076;7.950;2024-03-22T09:31:32;97153.00;;;12.32;89.28
55032;BME280;40928;51.076;7.950;2024-03-22T09:33:58;97157.13;;;12.40;89.09
55032;BME280;40928;51.076;7.950;2024-03-22T09:36:24;97146.59;;;12.33;87.42
55032;BME280;40928;51.076;7.950;2024-03-22T09:38:51;97139.81;;;12.25;87.50
55032;BME280;40928;51.076;7.950;2024-03-22T09:41:24;97142.03;;;12.33;87.83
55032;BME280;40928;51.076;7.950;2024-03-22T09:43:51;97135.63;;;12.34;87.63
55032;BME280;40928;51.076;7.950;2024-03-22T09:46:19;97139.19;;;12.40;88.15
55032;BME280;40928;51.076;7.950;2024-03-22T09:48:49;97139.63;;;12.32;87.54
55032;BME280;40928;51.076;7.950;2024-03-22T09:51:16;97131.97;;;12.41;87.66
55032;BME280;40928;51.076;7.950;2024-03-22T09:53:44;97124.31;;;12.49;87.08
55032;BME280;40928;51.076;7.950;2024-03-22T09:56:13;97123.06;;;12.57;86.35
55032;BME280;40928;51.076;7.950;2024-03-22T09:58:41;97108.63;;;12.58;86.57
55032;BME280;40928;51.076;7.950;2024-03-22T10:01:07;97117.94;;;12.56;85.72
55032;BME280;40928;51.076;7.950;2024-03-22T10:03:34;97110.44;;;12.53;85.37
55032;BME280;40928;51.076;7.950;2024-03-22T10:06:06;97118.41;;;12.70;85.66
55032;BME280;40928;51.076;7.950;2024-03-22T10:08:31;97114.44;;;13.00;84.13
55032;BME280;40928;51.076;7.950;2024-03-22T10:10:57;97120.03;;;13.20;83.45
55032;BME280;40928;51.076;7.950;2024-03-22T10:13:27;97102.06;;;13.48;81.50
55032;BME280;40928;51.076;7.950;2024-03-22T10:15:52;97102.03;;;13.81;79.44
55032;BME280;40928;51.076;7.950;2024-03-22T10:18:19;97104.75;;;13.86;78.42
55032;BME280;40928;51.076;7.950;2024-03-22T10:20:44;97102.66;;;13.93;77.38
55032;BME280;40928;51.076;7.950;2024-03-22T10:23:10;97101.56;;;13.89;75.85
55032;BME280;40928;51.076;7.950;2024-03-22T10:25:36;97104.09;;;13.68;76.63
55032;BME280;40928;51.076;7.950;2024-03-22T10:28:02;97105.97;;;13.68;76.06
55032;BME280;40928;51.076;7.950;2024-03-22T10:30:29;97103.53;;;13.66;76.45
55032;BME280;40928;51.076;7.950;2024-03-22T10:32:56;97101.69;;;13.67;75.72
55032;BME280;40928;51.076;7.950;2024-03-22T10:35:24;97100.56;;;13.63;77.30
55032;BME280;40928;51.076;7.950;2024-03-22T10:37:51;97105.28;;;13.50;76.30
55032;BME280;40928;51.076;7.950;2024-03-22T10:40:18;97099.78;;;13.35;76.48
55032;BME280;40928;51.076;7.950;2024-03-22T10:42:45;97094.81;;;13.21;76.49
55032;BME280;40928;51.076;7.950;2024-03-22T10:45:12;97091.03;;;13.17;75.68
55032;BME280;40928;51.076;7.950;2024-03-22T10:47:38;97096.28;;;13.07;75.45
55032;BME280;40928;51.076;7.950;2024-03-22T10:50:11;97080.25;;;13.12;76.63
55032;BME280;40928;51.076;7.950;2024-03-22T10:52:38;97075.66;;;13.07;78.58
55032;BME280;40928;51.076;7.950;2024-03-22T10:55:06;97085.25;;;13.03;78.32
55032;BME280;40928;51.076;7.950;2024-03-22T10:57:34;97077.19;;;12.98;79.11
55032;BME280;40928;51.076;7.950;2024-03-22T11:00:09;97074.34;;;12.83;76.08
55032;BME280;40928;51.076;7.950;2024-03-22T11:02:37;97073.44;;;12.77;76.66
55032;BME280;40928;51.076;7.950;2024-03-22T11:05:04;97069.53;;;12.62;78.64
55032;BME280;40928;51.076;7.950;2024-03-22T11:07:31;97071.50;;;12.67;78.34
55032;BME280;40928;51.076;7.950;2024-03-22T11:09:58;97061.56;;;12.68;78.24
55032;BME280;40928;51.076;7.950;2024-03-22T11:12:25;97064.31;;;12.73;77.49
55032;BME280;40928;51.076;7.950;2024-03-22T11:14:53;97066.63;;;12.64;77.85
55032;BME280;40928;51.076;7.950;2024-03-22T11:17:19;97061.88;;;12.71;77.29
55032;BME280;40928;51.076;7.950;2024-03-22T11:19:44;97061.88;;;12.71;76.80
55032;BME280;40928;51.076;7.950;2024-03-22T11:22:10;97049.53;;;12.70;75.76
55032;BME280;40928;51.076;7.950;2024-03-22T11:24:37;97059.06;;;12.83;76.79
55032;BME280;40928;51.076;7.950;2024-03-22T11:27:03;97048.97;;;12.90;76.81
55032;BME280;40928;51.076;7.950;2024-03-22T11:29:29;97045.44;;;12.90;77.44
55032;BME280;40928;51.076;7.950;2024-03-22T11:31:55;97035.34;;;12.97;77.74
55032;BME280;40928;51.076;7.950;2024-03-22T11:34:21;97028.59;;;12.94;78.49
55032;BME280;40928;51.076;7.950;2024-03-22T11:36:47;97026.97;;;12.88;76.47
55032;BME280;40928;51.076;7.950;2024-03-22T11:39:15;97039.31;;;12.94;74.12
55032;BME280;40928;51.076;7.950;2024-03-22T11:41:41;97030.72;;;12.92;71.55
55032;BME280;40928;51.076;7.950;2024-03-22T11:44:07;97029.59;;;12.83;71.48
55032;BME280;40928;51.076;7.950;2024-03-22T11:46:33;97028.03;;;12.87;72.31
55032;BME280;40928;51.076;7.950;2024-03-22T11:48:59;97009.28;;;12.92;71.55
55032;BME280;40928;51.076;7.950;2024-03-22T11:51:25;97002.84;;;12.88;72.69
55032;BME280;40928;51.076;7.950;2024-03-22T11:53:51;97000.25;;;12.99;73.29
55032;BME280;40928;51.076;7.950;2024-03-22T11:56:19;96998.69;;;13.03;73.78
55032;BME280;40928;51.076;7.950;2024-03-22T11:58:49;97001.66;;;13.06;74.59
55032;BME280;40928;51.076;7.950;2024-03-22T12:01:16;97006.78;;;13.13;74.79
55032;BME280;40928;51.076;7.950;2024-03-22T12:03:44;96992.53;;;13.07;73.76
55032;BME280;40928;51.076;7.950;2024-03-22T12:06:10;96994.38;;;13.02;73.96
55032;BME280;40928;51.076;7.950;2024-03-22T12:08:38;96982.72;;;13.18;73.34
55032;BME280;40928;51.076;7.950;2024-03-22T12:11:07;96963.66;;;13.15;71.70
55032;BME280;40928;51.076;7.950;2024-03-22T12:13:34;96961.00;;;13.20;71.47
55032;BME280;40928;51.076;7.950;2024-03-22T12:16:00;96962.56;;;13.10;69.39
55032;BME280;40928;51.076;7.950;2024-03-22T12:18:27;96958.72;;;13.01;70.70
55032;BME280;40928;51.076;7.950;2024-03-22T12:20:53;96966.00;;;13.06;71.80
55032;BME280;40928;51.076;7.950;2024-03-22T12:23:19;96966.25;;;13.04;72.52
55032;BME280;40928;51.076;7.950;2024-03-22T12:25:44;96960.66;;;13.06;73.44
55032;BME280;40928;51.076;7.950;2024-03-22T12:28:10;96953.19;;;13.13;73.76
55032;BME280;40928;51.076;7.950;2024-03-22T12:30:36;96947.56;;;13.15;72.65
55032;BME280;40928;51.076;7.950;2024-03-22T12:33:02;96952.63;;;13.11;72.50
55032;BME280;40928;51.076;7.950;2024-03-22T12:35:28;96954.50;;;13.10;72.96
55032;BME280;40928;51.076;7.950;2024-03-22T12:37:58;96956.91;;;13.12;73.34
55032;BME280;40928;51.076;7.950;2024-03-22T12:40:24;96961.16;;;13.08;71.85
55032;BME280;40928;51.076;7.950;2024-03-22T12:42:50;96960.03;;;12.99;73.39
55032;BME280;40928;51.076;7.950;2024-03-22T12:45:16;96957.91;;;13.01;74.14
55032;BME280;40928;51.076;7.950;2024-03-22T12:47:41;96951.72;;;13.00;74.77
55032;BME280;40928;51.076;7.950;2024-03-22T12:50:07;96953.88;;;12.98;75.10
55032;BME280;40928;51.076;7.950;2024-03-22T12:52:33;96945.56;;;13.00;75.32
55032;BME280;40928;51.076;7.950;2024-03-22T12:54:59;96944.50;;;13.01;75.67